sensor_id;sensor_type;location;lat;lon;timestamp;temperature;humidity
64654;DHT22;51065;48.884;12.598;2023-05-29T00:00:05;11.20;99.90
64654;DHT22;51065;48.884;12.598;2023-05-29T00:02:33;11.20;99.90
64654;DHT22;51065;48.884;12.598;2023-05-29T00:04:59;11.10;99.90
64654;DHT22;51065;48.884;12.598;2023-05-29T00:07:31;11.10;99.90
64654;DHT22;51065;48.884;12.598;2023-05-29T00:09:58;11.10;99.90
64654;DHT22;51065;48.884;12.598;2023-05-29T00:12:24;11.00;99.90
64654;DHT22;51065;48.884;12.598;2023-05-29T00:14:49;11.00;99.90
64654;DHT22;51065;48.884;12.598;2023-05-29T00:17:15;11.00;99.90
64654;DHT22;51065;48.884;12.598;2023-05-29T00:19:42;11.00;99.90
64654;DHT22;51065;48.884;12.598;2023-05-29T00:22:08;10.90;99.90
64654;DHT22;51065;48.884;12.598;2023-05-29T00:24:34;10.90;99.90
64654;DHT22;51065;48.884;12.598;2023-05-29T00:26:59;10.80;99.90
64654;DHT22;51065;48.884;12.598;2023-05-29T00:29:26;10.80;99.90
64654;DHT22;51065;48.884;12.598;2023-05-29T00:31:52;10.80;99.90
64654;DHT22;51065;48.884;12.598;2023-05-29T00:34:19;10.70;99.90
64654;DHT22;51065;48.884;12.598;2023-05-29T00:36:45;10.70;99.90
64654;DHT22;51065;48.884;12.598;2023-05-29T00:39:11;10.70;99.90
64654;DHT22;51065;48.884;12.598;2023-05-29T00:41:37;10.70;99.90
64654;DHT22;51065;48.884;12.598;2023-05-29T00:44:03;10.70;99.90
64654;DHT22;51065;48.884;12.598;2023-05-29T00:46:30;10.90;99.90
64654;DHT22;51065;48.884;12.598;2023-05-29T00:48:55;10.90;99.90
64654;DHT22;51065;48.884;12.598;2023-05-29T00:51:21;10.90;99.90
64654;DHT22;51065;48.884;12.598;2023-05-29T00:53:48;11.10;99.90
64654;DHT22;51065;48.884;12.598;2023-05-29T00:56:15;11.00;99.90
64654;DHT22;51065;48.884;12.598;2023-05-29T00:58:43;11.10;99.90
64654;DHT22;51065;48.884;12.598;2023-05-29T01:01:09;11.20;99.90
64654;DHT22;51065;48.884;12.598;2023-05-29T01:03:35;11.20;99.90
64654;DHT22;51065;48.884;12.598;2023-05-29T01:06:01;11.20;99.90
64654;DHT22;51065;48.884;12.598;2023-05-29T01:08:28;11.20;99.90
64654;DHT22;51065;48.884;12.598;2023-05-29T01:11:04;11.10;99.90
64654;DHT22;51065;48.884;12.598;2023-05-29T01:13:31;11.10;99.90
64654;DHT22;51065;48.884;12.598;2023-05-29T01:16:22;11.20;99.90
64654;DHT22;51065;48.884;12.598;2023-05-29T01:19:00;11.30;99.90
64654;DHT22;51065;48.884;12.598;2023-05-29T01:21:51;11.30;99.90
64654;DHT22;51065;48.884;12.598;2023-05-29T01:24:50;11.30;99.90
64654;DHT22;51065;48.884;12.598;2023-05-29T01:27:18;11.40;99.90
64654;DHT22;51065;48.884;12.598;2023-05-29T01:29:45;11.40;99.90
64654;DHT22;51065;48.884;12.598;2023-05-29T01:32:11;11.40;99.90
64654;DHT22;51065;48.884;12.598;2023-05-29T01:34:37;11.20;99.90
64654;DHT22;51065;48.884;12.598;2023-05-29T01:37:03;11.10;99.90
64654;DHT22;51065;48.884;12.598;2023-05-29T01:39:29;10.90;99.90
64654;DHT22;51065;48.884;12.598;2023-05-29T01:41:56;10.80;99.90
64654;DHT22;51065;48.884;12.598;2023-05-29T01:44:22;10.60;99.90
64654;DHT22;51065;48.884;12.598;2023-05-29T01:46:49;10.50;99.90
64654;DHT22;51065;48.884;12.598;2023-05-29T01:49:15;10.40;99.90
64654;DHT22;51065;48.884;12.598;2023-05-29T01:51:42;10.20;99.90
64654;DHT22;51065;48.884;12.598;2023-05-29T01:54:08;10.10;99.90
64654;DHT22;51065;48.884;12.598;2023-05-29T01:56:34;10.00;99.90
64654;DHT22;51065;48.884;12.598;2023-05-29T01:59:02;9.90;99.90
64654;DHT22;51065;48.884;12.598;2023-05-29T02:01:28;9.90;99.90
64654;DHT22;51065;48.884;12.598;2023-05-29T02:03:54;10.00;99.90
64654;DHT22;51065;48.884;12.598;2023-05-29T02:06:20;9.90;99.90
64654;DHT22;51065;48.884;12.598;2023-05-29T02:08:46;9.90;99.90
64654;DHT22;51065;48.884;12.598;2023-05-29T02:11:11;9.90;99.90
64654;DHT22;51065;48.884;12.598;2023-05-29T02:13:37;9.90;99.90
64654;DHT22;51065;48.884;12.598;2023-05-29T02:16:03;9.80;99.90
64654;DHT22;51065;48.884;12.598;2023-05-29T02:18:28;9.80;99.90
64654;DHT22;51065;48.884;12.598;2023-05-29T02:20:54;9.70;99.90
64654;DHT22;51065;48.884;12.598;2023-05-29T02:23:20;9.70;99.90
64654;DHT22;51065;48.884;12.598;2023-05-29T02:25:46;9.60;99.90
64654;DHT22;51065;48.884;12.598;2023-05-29T02:28:12;9.60;99.90
64654;DHT22;51065;48.884;12.598;2023-05-29T02:30:37;9.50;99.90
64654;DHT22;51065;48.884;12.598;2023-05-29T02:33:03;9.50;99.90
64654;DHT22;51065;48.884;12.598;2023-05-29T02:35:29;9.50;99.90
64654;DHT22;51065;48.884;12.598;2023-05-29T02:37:54;9.40;99.90
64654;DHT22;51065;48.884;12.598;2023-05-29T02:40:20;9.40;99.90
64654;DHT22;51065;48.884;12.598;2023-05-29T02:42:46;9.30;99.90
64654;DHT22;51065;48.884;12.598;2023-05-29T02:45:12;9.30;99.90
64654;DHT22;51065;48.884;12.598;2023-05-29T02:47:38;9.20;99.90
64654;DHT22;51065;48.884;12.598;2023-05-29T02:50:04;9.20;99.90
64654;DHT22;51065;48.884;12.598;2023-05-29T02:52:31;9.10;99.90
64654;DHT22;51065;48.884;12.598;2023-05-29T02:54:57;9.10;99.90
64654;DHT22;51065;48.884;12.598;2023-05-29T02:57:24;9.10;99.90
64654;DHT22;51065;48.884;12.598;2023-05-29T02:59:50;9.00;99.90
64654;DHT22;51065;48.884;12.598;2023-05-29T03:02:17;9.10;99.90
64654;DHT22;51065;48.884;12.598;2023-05-29T03:04:42;9.10;99.90
64654;DHT22;51065;48.884;12.598;2023-05-29T03:07:08;9.10;99.90
64654;DHT22;51065;48.884;12.598;2023-05-29T03:09:35;9.00;99.90
64654;DHT22;51065;48.884;12.598;2023-05-29T03:12:01;9.00;99.90
64654;DHT22;51065;48.884;12.598;2023-05-29T03:14:27;9.00;99.90
64654;DHT22;51065;48.884;12.598;2023-05-29T03:16:53;9.00;99.90
64654;DHT22;51065;48.884;12.598;2023-05-29T03:19:19;8.90;99.90
64654;DHT22;51065;48.884;12.598;2023-05-29T03:21:45;8.90;99.90
64654;DHT22;51065;48.884;12.598;2023-05-29T03:24:11;8.90;99.90
64654;DHT22;51065;48.884;12.598;2023-05-29T03:26:39;8.90;99.90
64654;DHT22;51065;48.884;12.598;2023-05-29T03:29:04;9.00;99.90
64654;DHT22;51065;48.884;12.598;2023-05-29T03:31:30;9.00;99.90
64654;DHT22;51065;48.884;12.598;2023-05-29T03:33:56;9.00;99.90
64654;DHT22;51065;48.884;12.598;2023-05-29T03:36:22;9.00;99.90
64654;DHT22;51065;48.884;12.598;2023-05-29T03:38:47;9.20;99.90
64654;DHT22;51065;48.884;12.598;2023-05-29T03:41:13;9.30;99.90
64654;DHT22;51065;48.884;12.598;2023-05-29T03:43:38;9.40;99.90
64654;DHT22;51065;48.884;12.598;2023-05-29T03:46:04;9.70;99.90
64654;DHT22;51065;48.884;12.598;2023-05-29T03:48:30;9.80;99.90
64654;DHT22;51065;48.884;12.598;2023-05-29T03:50:55;9.90;99.90
64654;DHT22;51065;48.884;12.598;2023-05-29T03:53:21;10.00;99.90
64654;DHT22;51065;48.884;12.598;2023-05-29T03:55:46;10.20;99.90
64654;DHT22;51065;48.884;12.598;2023-05-29T03:58:12;10.30;99.90
64654;DHT22;51065;48.884;12.598;2023-05-29T04:00:38;10.40;99.90
64654;DHT22;51065;48.884;12.598;2023-05-29T04:03:04;10.50;99.90
64654;DHT22;51065;48.884;12.598;2023-05-29T04:05:29;10.70;99.90
64654;DHT22;51065;48.884;12.598;2023-05-29T04:07:56;10.70;99.90
64654;DHT22;51065;48.884;12.598;2023-05-29T04:10:21;10.90;99.90
64654;DHT22;51065;48.884;12.598;2023-05-29T04:12:47;11.00;99.90
64654;DHT22;51065;48.884;12.598;2023-05-29T04:15:13;11.10;99.90
64654;DHT22;51065;48.884;12.598;2023-05-29T04:17:38;11.20;99.90
64654;DHT22;51065;48.884;12.598;2023-05-29T04:20:04;11.40;99.90
64654;DHT22;51065;48.884;12.598;2023-05-29T04:22:35;11.50;99.90
64654;DHT22;51065;48.884;12.598;2023-05-29T04:25:01;11.70;99.90
64654;DHT22;51065;48.884;12.598;2023-05-29T04:27:29;12.00;99.90
64654;DHT22;51065;48.884;12.598;2023-05-29T04:29:55;12.50;99.90
64654;DHT22;51065;48.884;12.598;2023-05-29T04:32:21;13.00;99.90
64654;DHT22;51065;48.884;12.598;2023-05-29T04:34:47;13.50;99.90
64654;DHT22;51065;48.884;12.598;2023-05-29T04:37:13;13.80;99.90
64654;DHT22;51065;48.884;12.598;2023-05-29T04:39:39;14.10;99.90
64654;DHT22;51065;48.884;12.598;2023-05-29T04:42:05;14.40;99.90
64654;DHT22;51065;48.884;12.598;2023-05-29T04:44:31;14.70;99.90
64654;DHT22;51065;48.884;12.598;2023-05-29T04:46:56;14.90;99.90
64654;DHT22;51065;48.884;12.598;2023-05-29T04:49:22;15.20;99.90
64654;DHT22;51065;48.884;12.598;2023-05-29T04:51:48;15.50;99.90
64654;DHT22;51065;48.884;12.598;2023-05-29T04:54:17;15.70;99.90
64654;DHT22;51065;48.884;12.598;2023-05-29T04:56:45;15.90;99.70
64654;DHT22;51065;48.884;12.598;2023-05-29T04:59:11;16.20;97.00
64654;DHT22;51065;48.884;12.598;2023-05-29T05:01:37;16.20;96.50
64654;DHT22;51065;48.884;12.598;2023-05-29T05:04:03;16.30;91.30
64654;DHT22;51065;48.884;12.598;2023-05-29T05:06:29;16.40;90.50
64654;DHT22;51065;48.884;12.598;2023-05-29T05:08:54;16.30;94.00
64654;DHT22;51065;48.884;12.598;2023-05-29T05:11:22;16.50;93.90
64654;DHT22;51065;48.884;12.598;2023-05-29T05:13:47;16.50;95.70
64654;DHT22;51065;48.884;12.598;2023-05-29T05:16:13;16.90;93.00
64654;DHT22;51065;48.884;12.598;2023-05-29T05:18:39;17.00;90.10
64654;DHT22;51065;48.884;12.598;2023-05-29T05:21:04;17.20;86.30
64654;DHT22;51065;48.884;12.598;2023-05-29T05:23:31;17.20;87.70
64654;DHT22;51065;48.884;12.598;2023-05-29T05:25:56;17.50;86.70
64654;DHT22;51065;48.884;12.598;2023-05-29T05:28:22;17.70;77.30
64654;DHT22;51065;48.884;12.598;2023-05-29T05:30:47;17.80;80.60
64654;DHT22;51065;48.884;12.598;2023-05-29T05:33:13;18.00;75.30
64654;DHT22;51065;48.884;12.598;2023-05-29T05:35:39;17.80;79.10
64654;DHT22;51065;48.884;12.598;2023-05-29T05:38:05;18.10;78.50
64654;DHT22;51065;48.884;12.598;2023-05-29T05:40:31;18.20;73.40
64654;DHT22;51065;48.884;12.598;2023-05-29T05:42:57;18.40;75.80
64654;DHT22;51065;48.884;12.598;2023-05-29T05:45:22;18.70;69.50
64654;DHT22;51065;48.884;12.598;2023-05-29T05:47:48;18.40;70.00
64654;DHT22;51065;48.884;12.598;2023-05-29T05:50:13;18.60;72.20
64654;DHT22;51065;48.884;12.598;2023-05-29T05:52:39;19.10;68.40
64654;DHT22;51065;48.884;12.598;2023-05-29T05:55:05;19.20;66.30
64654;DHT22;51065;48.884;12.598;2023-05-29T05:57:31;19.30;68.00
64654;DHT22;51065;48.884;12.598;2023-05-29T06:00:07;19.40;68.80
64654;DHT22;51065;48.884;12.598;2023-05-29T06:02:37;19.10;67.20
64654;DHT22;51065;48.884;12.598;2023-05-29T06:05:02;19.50;71.00
64654;DHT22;51065;48.884;12.598;2023-05-29T06:07:29;19.60;64.90
64654;DHT22;51065;48.884;12.598;2023-05-29T06:09:55;20.10;63.00
64654;DHT22;51065;48.884;12.598;2023-05-29T06:12:20;20.30;62.50
64654;DHT22;51065;48.884;12.598;2023-05-29T06:14:46;20.60;60.20
64654;DHT22;51065;48.884;12.598;2023-05-29T06:17:11;20.60;61.10
64654;DHT22;51065;48.884;12.598;2023-05-29T06:19:37;21.10;59.20
64654;DHT22;51065;48.884;12.598;2023-05-29T06:22:02;21.50;58.60
64654;DHT22;51065;48.884;12.598;2023-05-29T06:24:28;21.90;56.30
64654;DHT22;51065;48.884;12.598;2023-05-29T06:26:54;21.90;56.40
64654;DHT22;51065;48.884;12.598;2023-05-29T06:29:19;22.20;55.10
64654;DHT22;51065;48.884;12.598;2023-05-29T06:31:45;22.80;53.10
64654;DHT22;51065;48.884;12.598;2023-05-29T06:34:10;23.00;53.10
64654;DHT22;51065;48.884;12.598;2023-05-29T06:36:36;22.50;48.90
64654;DHT22;51065;48.884;12.598;2023-05-29T06:39:02;21.70;52.80
64654;DHT22;51065;48.884;12.598;2023-05-29T06:41:27;21.70;56.00
64654;DHT22;51065;48.884;12.598;2023-05-29T06:43:53;21.80;54.00
64654;DHT22;51065;48.884;12.598;2023-05-29T06:46:18;22.30;53.10
64654;DHT22;51065;48.884;12.598;2023-05-29T06:48:44;22.50;50.60
64654;DHT22;51065;48.884;12.598;2023-05-29T06:51:10;23.10;48.40
64654;DHT22;51065;48.884;12.598;2023-05-29T06:53:40;23.30;49.50
64654;DHT22;51065;48.884;12.598;2023-05-29T06:56:07;23.10;47.00
64654;DHT22;51065;48.884;12.598;2023-05-29T06:58:33;22.90;47.40
64654;DHT22;51065;48.884;12.598;2023-05-29T07:00:59;22.90;49.30
64654;DHT22;51065;48.884;12.598;2023-05-29T07:03:25;23.00;50.20
64654;DHT22;51065;48.884;12.598;2023-05-29T07:05:51;23.30;48.30
64654;DHT22;51065;48.884;12.598;2023-05-29T07:08:17;22.80;47.30
64654;DHT22;51065;48.884;12.598;2023-05-29T07:10:42;22.70;47.60
64654;DHT22;51065;48.884;12.598;2023-05-29T07:13:08;23.20;48.00
64654;DHT22;51065;48.884;12.598;2023-05-29T07:15:34;22.80;46.90
64654;DHT22;51065;48.884;12.598;2023-05-29T07:17:59;22.90;47.10
64654;DHT22;51065;48.884;12.598;2023-05-29T07:20:25;22.90;47.70
64654;DHT22;51065;48.884;12.598;2023-05-29T07:22:51;22.90;47.20
64654;DHT22;51065;48.884;12.598;2023-05-29T07:25:17;23.30;47.40
64654;DHT22;51065;48.884;12.598;2023-05-29T07:27:42;23.90;46.10
64654;DHT22;51065;48.884;12.598;2023-05-29T07:30:08;24.10;45.00
64654;DHT22;51065;48.884;12.598;2023-05-29T07:32:34;24.20;45.00
64654;DHT22;51065;48.884;12.598;2023-05-29T07:35:00;24.10;44.50
64654;DHT22;51065;48.884;12.598;2023-05-29T07:37:25;24.30;44.60
64654;DHT22;51065;48.884;12.598;2023-05-29T07:39:51;24.30;44.70
64654;DHT22;51065;48.884;12.598;2023-05-29T07:42:16;24.40;44.60
64654;DHT22;51065;48.884;12.598;2023-05-29T07:44:42;24.90;44.00
64654;DHT22;51065;48.884;12.598;2023-05-29T07:47:10;25.20;43.00
64654;DHT22;51065;48.884;12.598;2023-05-29T07:49:36;25.10;43.50
64654;DHT22;51065;48.884;12.598;2023-05-29T07:52:03;25.30;43.50
64654;DHT22;51065;48.884;12.598;2023-05-29T07:54:28;25.40;44.90
64654;DHT22;51065;48.884;12.598;2023-05-29T07:56:54;25.90;42.50
64654;DHT22;51065;48.884;12.598;2023-05-29T07:59:20;26.20;41.40
64654;DHT22;51065;48.884;12.598;2023-05-29T08:01:46;26.00;42.00
64654;DHT22;51065;48.884;12.598;2023-05-29T08:04:12;25.90;42.30
64654;DHT22;51065;48.884;12.598;2023-05-29T08:06:38;26.30;41.30
64654;DHT22;51065;48.884;12.598;2023-05-29T08:09:07;26.10;40.30
64654;DHT22;51065;48.884;12.598;2023-05-29T08:11:33;26.50;40.30
64654;DHT22;51065;48.884;12.598;2023-05-29T08:13:58;26.60;39.60
64654;DHT22;51065;48.884;12.598;2023-05-29T08:16:25;26.90;39.40
64654;DHT22;51065;48.884;12.598;2023-05-29T08:18:52;27.30;39.50
64654;DHT22;51065;48.884;12.598;2023-05-29T08:21:18;27.70;38.90
64654;DHT22;51065;48.884;12.598;2023-05-29T08:23:44;26.90;40.30
64654;DHT22;51065;48.884;12.598;2023-05-29T08:26:10;26.80;39.90
64654;DHT22;51065;48.884;12.598;2023-05-29T08:28:35;27.10;40.20
64654;DHT22;51065;48.884;12.598;2023-05-29T08:31:01;26.70;39.70
64654;DHT22;51065;48.884;12.598;2023-05-29T08:33:26;27.20;40.10
64654;DHT22;51065;48.884;12.598;2023-05-29T08:35:52;27.30;39.50
64654;DHT22;51065;48.884;12.598;2023-05-29T08:38:17;27.90;39.10
64654;DHT22;51065;48.884;12.598;2023-05-29T08:40:43;28.00;37.80
64654;DHT22;51065;48.884;12.598;2023-05-29T08:43:15;27.70;38.80
64654;DHT22;51065;48.884;12.598;2023-05-29T08:45:45;27.80;36.30
64654;DHT22;51065;48.884;12.598;2023-05-29T08:48:12;28.50;36.20
64654;DHT22;51065;48.884;12.598;2023-05-29T08:50:43;29.10;34.90
64654;DHT22;51065;48.884;12.598;2023-05-29T08:53:12;29.90;33.50
64654;DHT22;51065;48.884;12.598;2023-05-29T08:55:38;29.50;33.90
64654;DHT22;51065;48.884;12.598;2023-05-29T08:58:04;29.30;32.40
64654;DHT22;51065;48.884;12.598;2023-05-29T09:00:31;29.20;33.10
64654;DHT22;51065;48.884;12.598;2023-05-29T09:02:56;28.70;32.70
64654;DHT22;51065;48.884;12.598;2023-05-29T09:05:25;28.00;34.20
64654;DHT22;51065;48.884;12.598;2023-05-29T09:07:53;27.70;36.50
64654;DHT22;51065;48.884;12.598;2023-05-29T09:10:19;28.40;36.10
64654;DHT22;51065;48.884;12.598;2023-05-29T09:12:46;29.10;35.50
64654;DHT22;51065;48.884;12.598;2023-05-29T09:15:19;29.20;34.30
64654;DHT22;51065;48.884;12.598;2023-05-29T09:17:56;29.10;35.00
64654;DHT22;51065;48.884;12.598;2023-05-29T09:20:26;29.30;33.00
64654;DHT22;51065;48.884;12.598;2023-05-29T09:23:01;29.30;31.90
64654;DHT22;51065;48.884;12.598;2023-05-29T09:25:29;29.60;31.00
64654;DHT22;51065;48.884;12.598;2023-05-29T09:30:38;29.20;33.60
64654;DHT22;51065;48.884;12.598;2023-05-29T09:33:05;30.00;32.40
64654;DHT22;51065;48.884;12.598;2023-05-29T09:35:35;29.50;31.70
64654;DHT22;51065;48.884;12.598;2023-05-29T09:38:01;29.60;32.20
64654;DHT22;51065;48.884;12.598;2023-05-29T09:40:30;29.70;31.90
64654;DHT22;51065;48.884;12.598;2023-05-29T09:43:05;29.60;32.30
64654;DHT22;51065;48.884;12.598;2023-05-29T09:45:54;29.90;33.40
64654;DHT22;51065;48.884;12.598;2023-05-29T09:48:23;30.30;30.50
64654;DHT22;51065;48.884;12.598;2023-05-29T09:50:49;30.50;31.50
64654;DHT22;51065;48.884;12.598;2023-05-29T09:55:48;30.70;31.40
64654;DHT22;51065;48.884;12.598;2023-05-29T09:58:15;30.70;31.40
64654;DHT22;51065;48.884;12.598;2023-05-29T10:00:47;30.60;30.30
64654;DHT22;51065;48.884;12.598;2023-05-29T10:03:14;30.80;32.40
64654;DHT22;51065;48.884;12.598;2023-05-29T10:05:41;30.30;31.40
64654;DHT22;51065;48.884;12.598;2023-05-29T10:08:12;29.60;34.60
64654;DHT22;51065;48.884;12.598;2023-05-29T10:10:46;30.30;31.10
64654;DHT22;51065;48.884;12.598;2023-05-29T10:13:14;30.30;33.00
64654;DHT22;51065;48.884;12.598;2023-05-29T10:15:45;30.80;30.90
64654;DHT22;51065;48.884;12.598;2023-05-29T10:18:26;31.20;30.70
64654;DHT22;51065;48.884;12.598;2023-05-29T10:20:54;29.90;32.80
64654;DHT22;51065;48.884;12.598;2023-05-29T10:23:23;28.80;32.40
64654;DHT22;51065;48.884;12.598;2023-05-29T10:25:53;29.20;34.30
64654;DHT22;51065;48.884;12.598;2023-05-29T10:28:20;29.60;31.30
64654;DHT22;51065;48.884;12.598;2023-05-29T10:31:05;30.20;34.10
64654;DHT22;51065;48.884;12.598;2023-05-29T10:36:19;30.70;30.90
64654;DHT22;51065;48.884;12.598;2023-05-29T10:38:48;30.60;30.60
64654;DHT22;51065;48.884;12.598;2023-05-29T10:43:54;29.60;34.00
64654;DHT22;51065;48.884;12.598;2023-05-29T10:46:20;29.20;31.90
64654;DHT22;51065;48.884;12.598;2023-05-29T10:48:49;29.30;32.90
64654;DHT22;51065;48.884;12.598;2023-05-29T10:51:24;29.40;32.90
64654;DHT22;51065;48.884;12.598;2023-05-29T10:53:51;29.80;32.10
64654;DHT22;51065;48.884;12.598;2023-05-29T10:56:21;30.30;31.60
64654;DHT22;51065;48.884;12.598;2023-05-29T10:58:54;30.60;33.90
64654;DHT22;51065;48.884;12.598;2023-05-29T11:01:24;30.20;31.10
64654;DHT22;51065;48.884;12.598;2023-05-29T11:03:50;29.80;32.40
64654;DHT22;51065;48.884;12.598;2023-05-29T11:06:20;29.70;32.30
64654;DHT22;51065;48.884;12.598;2023-05-29T11:08:56;30.40;31.90
64654;DHT22;51065;48.884;12.598;2023-05-29T11:11:31;31.10;31.50
64654;DHT22;51065;48.884;12.598;2023-05-29T11:14:05;31.20;31.40
64654;DHT22;51065;48.884;12.598;2023-05-29T11:18:59;31.10;31.40
64654;DHT22;51065;48.884;12.598;2023-05-29T11:24:26;31.20;29.80
64654;DHT22;51065;48.884;12.598;2023-05-29T11:26:53;31.00;30.60
64654;DHT22;51065;48.884;12.598;2023-05-29T11:31:49;30.90;31.80
64654;DHT22;51065;48.884;12.598;2023-05-29T11:34:20;30.30;32.40
64654;DHT22;51065;48.884;12.598;2023-05-29T11:36:46;30.10;32.30
64654;DHT22;51065;48.884;12.598;2023-05-29T11:39:14;29.10;33.90
64654;DHT22;51065;48.884;12.598;2023-05-29T11:41:40;28.90;32.60
64654;DHT22;51065;48.884;12.598;2023-05-29T11:44:05;29.10;32.70
64654;DHT22;51065;48.884;12.598;2023-05-29T11:46:31;29.10;36.90
64654;DHT22;51065;48.884;12.598;2023-05-29T11:48:58;29.80;32.10
64654;DHT22;51065;48.884;12.598;2023-05-29T11:51:24;29.90;33.40
64654;DHT22;51065;48.884;12.598;2023-05-29T11:53:50;29.00;36.20
64654;DHT22;51065;48.884;12.598;2023-05-29T11:56:18;28.80;33.00
64654;DHT22;51065;48.884;12.598;2023-05-29T11:58:45;28.60;34.20
64654;DHT22;51065;48.884;12.598;2023-05-29T12:01:11;28.60;33.90
64654;DHT22;51065;48.884;12.598;2023-05-29T12:03:41;29.00;34.70
64654;DHT22;51065;48.884;12.598;2023-05-29T12:06:11;28.20;34.20
64654;DHT22;51065;48.884;12.598;2023-05-29T12:08:38;28.60;35.40
64654;DHT22;51065;48.884;12.598;2023-05-29T12:11:04;29.30;36.20
64654;DHT22;51065;48.884;12.598;2023-05-29T12:13:30;29.30;32.60
64654;DHT22;51065;48.884;12.598;2023-05-29T12:16:00;29.60;36.10
64654;DHT22;51065;48.884;12.598;2023-05-29T12:18:34;29.50;33.50
64654;DHT22;51065;48.884;12.598;2023-05-29T12:21:01;29.70;33.40
64654;DHT22;51065;48.884;12.598;2023-05-29T12:23:28;29.80;35.60
64654;DHT22;51065;48.884;12.598;2023-05-29T12:25:54;30.10;35.50
64654;DHT22;51065;48.884;12.598;2023-05-29T12:28:20;30.10;33.80
64654;DHT22;51065;48.884;12.598;2023-05-29T12:30:47;30.40;33.20
64654;DHT22;51065;48.884;12.598;2023-05-29T12:33:33;29.60;33.60
64654;DHT22;51065;48.884;12.598;2023-05-29T12:36:07;30.10;33.20
64654;DHT22;51065;48.884;12.598;2023-05-29T12:38:46;29.90;33.90
64654;DHT22;51065;48.884;12.598;2023-05-29T12:43:55;30.60;33.10
64654;DHT22;51065;48.884;12.598;2023-05-29T12:46:23;31.10;33.60
64654;DHT22;51065;48.884;12.598;2023-05-29T12:48:48;31.50;32.00
64654;DHT22;51065;48.884;12.598;2023-05-29T12:51:17;31.20;31.40
64654;DHT22;51065;48.884;12.598;2023-05-29T12:53:43;30.70;32.90
64654;DHT22;51065;48.884;12.598;2023-05-29T12:56:08;30.60;33.70
64654;DHT22;51065;48.884;12.598;2023-05-29T12:58:34;30.20;35.20
64654;DHT22;51065;48.884;12.598;2023-05-29T13:00:59;30.10;34.90
64654;DHT22;51065;48.884;12.598;2023-05-29T13:03:25;30.70;33.70
64654;DHT22;51065;48.884;12.598;2023-05-29T13:05:51;30.80;32.50
64654;DHT22;51065;48.884;12.598;2023-05-29T13:08:17;30.90;33.30
64654;DHT22;51065;48.884;12.598;2023-05-29T13:10:44;29.70;33.50
64654;DHT22;51065;48.884;12.598;2023-05-29T13:13:11;28.60;35.70
64654;DHT22;51065;48.884;12.598;2023-05-29T13:15:37;27.50;36.20
64654;DHT22;51065;48.884;12.598;2023-05-29T13:18:05;27.50;37.60
64654;DHT22;51065;48.884;12.598;2023-05-29T13:20:31;27.50;38.30
64654;DHT22;51065;48.884;12.598;2023-05-29T13:22:57;28.20;36.90
64654;DHT22;51065;48.884;12.598;2023-05-29T13:25:23;28.50;36.00
64654;DHT22;51065;48.884;12.598;2023-05-29T13:27:49;28.80;34.80
64654;DHT22;51065;48.884;12.598;2023-05-29T13:30:16;29.20;36.70
64654;DHT22;51065;48.884;12.598;2023-05-29T13:32:42;29.40;35.50
64654;DHT22;51065;48.884;12.598;2023-05-29T13:35:08;29.80;35.10
64654;DHT22;51065;48.884;12.598;2023-05-29T13:37:34;29.80;34.40
64654;DHT22;51065;48.884;12.598;2023-05-29T13:40:01;29.80;34.90
64654;DHT22;51065;48.884;12.598;2023-05-29T13:42:26;29.70;33.50
64654;DHT22;51065;48.884;12.598;2023-05-29T13:44:53;29.40;36.60
64654;DHT22;51065;48.884;12.598;2023-05-29T13:47:18;29.20;33.70
64654;DHT22;51065;48.884;12.598;2023-05-29T13:49:44;29.20;33.60
64654;DHT22;51065;48.884;12.598;2023-05-29T13:52:09;29.40;33.80
64654;DHT22;51065;48.884;12.598;2023-05-29T13:54:35;28.90;34.60
64654;DHT22;51065;48.884;12.598;2023-05-29T13:57:02;29.00;35.20
64654;DHT22;51065;48.884;12.598;2023-05-29T13:59:32;28.70;35.80
64654;DHT22;51065;48.884;12.598;2023-05-29T14:01:57;28.10;34.80
64654;DHT22;51065;48.884;12.598;2023-05-29T14:04:23;28.40;36.00
64654;DHT22;51065;48.884;12.598;2023-05-29T14:06:49;28.10;36.60
64654;DHT22;51065;48.884;12.598;2023-05-29T14:09:15;28.50;34.60
64654;DHT22;51065;48.884;12.598;2023-05-29T14:11:40;28.60;35.00
64654;DHT22;51065;48.884;12.598;2023-05-29T14:14:07;28.50;35.40
64654;DHT22;51065;48.884;12.598;2023-05-29T14:16:33;28.40;35.20
64654;DHT22;51065;48.884;12.598;2023-05-29T14:18:59;27.80;34.80
64654;DHT22;51065;48.884;12.598;2023-05-29T14:21:25;27.70;35.30
64654;DHT22;51065;48.884;12.598;2023-05-29T14:23:51;27.80;35.30
64654;DHT22;51065;48.884;12.598;2023-05-29T14:26:17;27.80;35.30
64654;DHT22;51065;48.884;12.598;2023-05-29T14:28:43;27.90;34.40
64654;DHT22;51065;48.884;12.598;2023-05-29T14:31:09;27.70;36.50
64654;DHT22;51065;48.884;12.598;2023-05-29T14:33:35;28.10;36.30
64654;DHT22;51065;48.884;12.598;2023-05-29T14:36:02;28.10;35.00
64654;DHT22;51065;48.884;12.598;2023-05-29T14:38:28;28.10;34.70
64654;DHT22;51065;48.884;12.598;2023-05-29T14:40:53;28.20;35.20
64654;DHT22;51065;48.884;12.598;2023-05-29T14:43:19;27.90;36.00
64654;DHT22;51065;48.884;12.598;2023-05-29T14:45:44;27.90;33.90
64654;DHT22;51065;48.884;12.598;2023-05-29T14:48:10;28.00;35.40
64654;DHT22;51065;48.884;12.598;2023-05-29T14:50:36;28.00;34.60
64654;DHT22;51065;48.884;12.598;2023-05-29T14:53:02;27.90;33.40
64654;DHT22;51065;48.884;12.598;2023-05-29T14:55:28;28.00;33.80
64654;DHT22;51065;48.884;12.598;2023-05-29T14:57:53;28.30;33.30
64654;DHT22;51065;48.884;12.598;2023-05-29T15:00:19;28.30;34.50
64654;DHT22;51065;48.884;12.598;2023-05-29T15:02:45;28.40;33.60
64654;DHT22;51065;48.884;12.598;2023-05-29T15:05:10;28.30;34.00
64654;DHT22;51065;48.884;12.598;2023-05-29T15:07:36;28.20;34.50
64654;DHT22;51065;48.884;12.598;2023-05-29T15:10:05;27.70;33.30
64654;DHT22;51065;48.884;12.598;2023-05-29T15:12:32;27.60;34.70
64654;DHT22;51065;48.884;12.598;2023-05-29T15:14:58;27.60;34.10
64654;DHT22;51065;48.884;12.598;2023-05-29T15:17:23;27.60;34.40
64654;DHT22;51065;48.884;12.598;2023-05-29T15:19:49;27.70;34.50
64654;DHT22;51065;48.884;12.598;2023-05-29T15:22:14;27.70;35.50
64654;DHT22;51065;48.884;12.598;2023-05-29T15:24:40;27.80;34.40
64654;DHT22;51065;48.884;12.598;2023-05-29T15:27:06;27.50;33.40
64654;DHT22;51065;48.884;12.598;2023-05-29T15:29:35;27.50;34.60
64654;DHT22;51065;48.884;12.598;2023-05-29T15:32:02;27.50;34.40
64654;DHT22;51065;48.884;12.598;2023-05-29T15:34:28;27.70;34.30
64654;DHT22;51065;48.884;12.598;2023-05-29T15:36:54;27.70;34.80